Latest Coastal Weather Observations for Aireys Inlet

IDV60701

Issued at 6:42 am EDT Sunday 26 March 2017 (issued every 10 minutes, with the page automatically refreshed every 10 minutes)

About coastal observations | Map of coastal stations | Coastal observations for VIC | Marine services | Other Formats
Station Details ID: 090180 Name: AIREYS INLET Lat: -38.46 Lon: 144.09 Height: 105.0 m
Data from the previous 72 hours. | See also: Recent months at Aireys Inlet
Date/Time
EDT
Temp
°C
Wind Pressure Rain since
9am
mm
Weather Cloud Vis
km
Sea
Height
m
Swell
Dir  Spd
kts
Gust
kts
hPa Trend Height
m
Period
s
Dir
26/06:30am 17.1 WSW 2 3 - - 0.0 - - - - - - -
26/06:00am 17.1 W 2 3 - - 0.0 - - - - - - -
26/05:30am 17.2 WSW 2 2 - - 0.0 - - - - - - -
26/05:00am 17.3 WSW 3 4 - - 0.0 - - - - - - -
26/04:30am 17.3 WSW 3 3 - - 0.0 - - - - - - -
26/04:00am 17.3 WSW 2 3 - - 0.0 - - - - - - -
26/03:30am 17.4 WSW 2 3 - - 0.0 - - - - - - -
26/03:00am 17.3 W 2 3 - - 0.0 - - - - - - -
26/02:30am 17.2 W 3 4 - - 0.0 - - - - - - -
26/02:00am 16.9 W 2 3 - - 0.0 - - - - - - -
26/01:30am 16.8 W 4 7 - - 0.0 - - - - - - -
26/01:00am 16.8 W 5 6 - - 0.0 - - - - - - -
26/12:30am 16.9 WSW 6 8 - - 0.0 - - - - - - -
26/12:00am 17.1 WSW 7 9 - - 0.0 - - - - - - -
 
Date/Time
EDT
Temp
°C
Wind Pressure Rain since
9am
mm
Weather Cloud Vis
km
Sea
Height
m
Swell
Dir  Spd
kts
Gust
kts
hPa Trend Height
m
Period
s
Dir
25/11:30pm 17.5 SW 7 10 - - 0.0 - - - - - - -
25/11:00pm 17.6 SW 8 12 - - 0.0 - - - - - - -
25/10:30pm 17.7 SW 9 14 - - 0.0 - - - - - - -
25/10:00pm 18.1 SW 10 15 - - 0.0 - - - - - - -
25/09:30pm 18.1 SW 10 14 - - 0.0 - - - - - - -
25/09:00pm 18.2 SSW 12 17 - - 0.0 - - - - - - -
25/08:30pm 18.4 SSW 12 18 - - 0.0 - - - - - - -
25/08:00pm 18.6 SSW 12 17 - - 0.0 - - - - - - -
25/07:30pm 19.1 SSW 10 17 - - 0.0 - - - - - - -
25/07:00pm 21.2 S 4 7 - - 0.0 - - - - - - -
25/06:30pm 22.0 SE 2 4 - - 0.0 - - - - - - -
25/06:00pm 22.6 ESE 3 5 - - 0.0 - - - - - - -
25/05:30pm 23.7 ESE 3 4 - - 0.0 - - - - - - -
25/05:00pm 24.0 SE 4 7 - - 0.0 - - - - - - -
25/04:30pm 24.5 ESE 4 6 - - 0.0 - - - - - - -
25/04:00pm 24.8 ESE 3 6 - - 0.0 - - - - - - -
25/03:30pm 24.0 ESE 4 5 - - 0.0 - - - - - - -
25/03:00pm 23.0 E 4 6 - - 0.0 - - - - - - -
25/02:30pm 24.6 ESE 4 6 - - 0.0 - - - - - - -
25/02:00pm 24.6 ESE 5 8 - - 0.0 - - - - - - -
25/01:30pm 24.5 ESE 5 8 - - 0.0 - - - - - - -
25/01:00pm 24.3 ESE 5 7 - - 0.0 - - - - - - -
25/12:30pm 24.8 SE 4 7 - - 0.0 - - - - - - -
25/12:00pm 24.6 SW 3 6 - - 0.0 - - - - - - -
25/11:30am 23.9 NW 7 9 - - 0.0 - - - - - - -
25/11:00am 22.2 NW 8 14 - - 0.0 - - - - - - -
25/10:30am 22.0 NW 7 12 - - 0.0 - - - - - - -
25/10:00am 21.9 NW 7 11 - - 0.0 - - - - - - -
25/09:30am 20.8 NNW 5 9 - - 0.0 - - - - - - -
25/09:00am 19.9 NNE 5 8 - - 0.0 - - - - - - -
25/08:30am 18.6 N 4 6 - - - - - - - - - -
25/08:00am 18.4 N 4 5 - - - - - - - - - -
25/07:30am 18.1 NNE 2 3 - - - - - - - - - -
25/07:00am 18.9 NNE 3 4 - - - - - - - - - -
25/06:30am 20.2 WNW 4 5 - - - - - - - - - -
25/06:00am 19.7 NNW 5 8 - - - - - - - - - -
25/05:30am 18.8 NE 3 5 - - - - - - - - - -
25/05:00am 18.9 N 3 6 - - - - - - - - - -
25/04:30am 18.3 NW 3 6 - - - - - - - - - -
25/04:00am 17.6 NE 2 3 - - - - - - - - - -
25/03:30am 17.6 N 2 5 - - - - - - - - - -
25/03:00am 17.5 NNE 2 3 - - 0.0 - - - - - - -
25/02:30am 17.6 NNW 3 4 - - - - - - - - - -
25/02:00am 17.3 NNE 8 11 - - - - - - - - - -
25/01:30am 17.4 N 7 9 - - - - - - - - - -
25/01:00am 15.8 N 6 9 - - - - - - - - - -
25/12:30am 15.9 NNW 4 6 - - - - - - - - - -
25/12:00am 16.0 NNW 4 5 - - - - - - - - - -
 
Date/Time
EDT
Temp
°C
Wind Pressure Rain since
9am
mm
Weather Cloud Vis
km
Sea
Height
m
Swell
Dir  Spd
kts
Gust
kts
hPa Trend Height
m
Period
s
Dir
24/11:30pm 16.0 NNW 3 4 - - - - - - - - - -
24/11:00pm 16.3 WNW 3 3 - - - - - - - - - -
24/10:30pm 15.9 NW 4 5 - - - - - - - - - -
24/10:00pm 16.2 NNW 3 5 - - - - - - - - - -
24/09:30pm 16.5 NW 2 3 - - - - - - - - - -
24/09:00pm 16.7 WSW 4 5 - - 0.0 - - - - - - -
24/08:30pm 16.8 SW 4 5 - - - - - - - - - -
24/08:00pm 17.3 WSW 4 6 - - - - - - - - - -
24/07:30pm 17.6 SW 4 5 - - - - - - - - - -
24/07:00pm 18.1 SW 2 4 - - - - - - - - - -
24/06:30pm 18.6 CALM 0 1 - - - - - - - - - -
24/06:00pm 18.9 ESE 1 3 - - - - - - - - - -
24/05:30pm 19.4 ESE 3 5 - - - - - - - - - -
24/05:00pm 19.3 E 4 6 - - - - - - - - - -
24/04:30pm 19.5 ESE 5 7 - - - - - - - - - -
24/04:00pm 19.2 E 6 12 - - - - - - - - - -
24/03:30pm 18.9 ESE 6 10 - - - - - - - - - -
24/03:00pm 19.2 ESE 7 12 - - 0.0 - - - - - - -
24/02:30pm 19.5 ESE 7 12 - - - - - - - - - -
24/02:00pm 18.9 E 5 9 - - - - - - - - - -
24/01:30pm 18.5 E 7 12 - - - - - - - - - -
24/01:00pm 18.7 E 7 13 - - - - - - - - - -
24/12:30pm 18.4 E 8 13 - - - - - - - - - -
24/12:00pm 18.3 E 8 12 - - - - - - - - - -
24/11:30am 17.7 ESE 7 12 - - 0.0 - - - - - - -
24/11:00am 17.6 E 8 14 - - 0.0 - - - - - - -
24/10:30am 17.5 E 8 14 - - 0.0 - - - - - - -
24/10:00am 17.4 E 8 13 - - 0.0 - - - - - - -
24/09:30am 17.5 E 7 13 - - 0.0 - - - - - - -
24/09:00am 17.0 E 7 11 - - 0.0 - - - - - - -
24/08:30am 17.1 E 6 10 - - - - - - - - - -
24/08:00am 16.7 E 6 12 - - - - - - - - - -
24/07:30am 16.6 E 7 11 - - - - - - - - - -
24/07:00am 16.3 E 8 14 - - - - - - - - - -
24/06:30am 16.3 E 9 15 - - - - - - - - - -
24/06:00am 16.2 E 8 15 - - - - - - - - - -
24/05:30am 16.1 E 6 12 - - - - - - - - - -
24/05:00am 16.1 E 6 9 - - 0.0 - - - - - - -
24/04:30am 16.2 ESE 8 14 - - 0.0 - - - - - - -
24/04:00am 16.2 E 9 13 - - 0.0 - - - - - - -
24/03:30am 16.3 E 8 14 - - 0.0 - - - - - - -
24/03:00am 16.3 E 9 13 - - 0.0 - - - - - - -
24/02:30am 16.4 E 9 16 - - 0.0 - - - - - - -
24/02:00am 16.4 E 10 14 - - 0.0 - - - - - - -
24/01:30am 16.5 E 8 15 - - 0.0 - - - - - - -
24/01:00am 16.6 E 9 16 - - 0.0 - - - - - - -
24/12:30am 16.7 E 9 15 - - 0.0 - - - - - - -
24/12:00am 16.7 E 9 15 - - 0.0 - - - - - - -
 
Date/Time
EDT
Temp
°C
Wind Pressure Rain since
9am
mm
Weather Cloud Vis
km
Sea
Height
m
Swell
Dir  Spd
kts
Gust
kts
hPa Trend Height
m
Period
s
Dir
23/11:30pm 16.9 E 9 16 - - 0.0 - - - - - - -
23/11:00pm 17.0 ESE 9 17 - - 0.0 - - - - - - -
23/10:30pm 17.1 ESE 10 17 - - 0.0 - - - - - - -
23/10:00pm 17.2 ESE 11 17 - - 0.0 - - - - - - -
23/09:30pm 17.0 ESE 8 17 - - 0.0 - - - - - - -
23/09:00pm 17.1 ESE 8 14 - - 0.0 - - - - - - -
23/08:30pm 17.0 ESE 8 15 - - 0.0 - - - - - - -
23/08:00pm 17.0 ESE 9 19 - - 0.0 - - - - - - -
23/07:30pm 17.1 SE 9 17 - - 0.0 - - - - - - -
23/07:00pm 17.1 SE 10 17 - - 0.0 - - - - - - -
23/06:30pm 17.3 SE 11 18 - - 0.0 - - - - - - -
23/06:00pm 17.8 SE 10 17 - - 0.0 - - - - - - -
23/05:30pm 17.8 SE 8 17 - - 0.0 - - - - - - -
23/05:00pm 18.0 SE 8 15 - - 0.0 - - - - - - -
23/04:30pm 18.4 SE 8 15 - - 0.0 - - - - - - -
23/04:00pm 18.7 SE 8 15 - - 0.0 - - - - - - -
23/03:30pm 18.9 SE 8 13 - - 0.0 - - - - - - -
23/03:00pm 19.3 SE 9 15 - - 0.0 - - - - - - -
23/02:30pm 19.6 SE 10 15 - - 0.0 - - - - - - -
23/02:00pm 19.3 SE 10 17 - - 0.0 - - - - - - -
23/01:30pm 19.4 SE 11 18 - - 0.0 - - - - - - -
23/01:00pm 19.1 SE 9 16 - - 0.0 - - - - - - -
23/12:30pm 18.5 SE 10 16 - - 0.0 - - - - - - -
23/12:00pm 19.3 ESE 9 16 - - 0.0 - - - - - - -
23/11:30am 18.6 ESE 10 17 - - 0.0 - - - - - - -
23/11:00am 18.4 ESE 9 16 - - 0.0 - - - - - - -
23/10:30am 18.4 ESE 8 18 - - 0.0 - - - - - - -
23/10:00am 17.7 ESE 9 15 - - 0.0 - - - - - - -
23/09:30am 17.3 ESE 9 15 - - 0.0 - - - - - - -
23/09:00am 17.2 ESE 8 18 - - 0.0 - - - - - - -
23/08:30am 16.9 ESE 10 16 - - 0.0 - - - - - - -
23/08:00am 16.7 ESE 9 17 - - 0.0 - - - - - - -
23/07:30am 16.6 ESE 10 17 - - 0.0 - - - - - - -
23/07:00am 16.6 ESE 8 14 - - 0.0 - - - - - - -

Other Formats:

Comma delimited format used in spreadsheet applications
http://www.bom.gov.au/fwo/IDV60701/IDV60701.94846.axf

JavaScript Object Notation format (JSON) in row-major order
http://www.bom.gov.au/fwo/IDV60701/IDV60701.94846.json